Time;durP1;ratioP1;P1;durP2;ratioP2;P2;SDS_P1;SDS_P2;PMS_P1;PMS_P2;Temp;Humidity;BMP_temperature;BMP_pressure;BME280_temperature;BME280_humidity;BME280_pressure;Samples;Min_cycle;Max_cycle;Signal;HPM_P1;HPM_P2
2022/03/24 00:01:46;;;;;;;;;;;;;;;10.87;58.05;102154.34;4426495;32;19958;-72
2022/03/24 00:04:11;;;;;;;;;;;;;;;10.72;58.63;102140.69;4427364;32;20037;-72
2022/03/24 00:06:37;;;;;;;;;;;;;;;10.62;59.04;102144.34;4413718;32;20046;-72
2022/03/24 00:09:03;;;;;;;;;;;;;;;10.65;58.68;102141.50;4428236;32;20048;-72
2022/03/24 00:11:30;;;;;;;;;;;;;;;10.63;58.74;102143.94;4424313;32;20614;-72
2022/03/24 00:13:56;;;;;;;;;;;;;;;10.60;58.71;102141.13;4419479;32;20001;-72
2022/03/24 00:16:21;;;;;;;;;;;;;;;10.60;59.07;102144.75;4418064;32;19946;-72
2022/03/24 00:18:47;;;;;;;;;;;;;;;10.58;58.94;102141.53;4418202;32;20378;-72
2022/03/24 00:21:16;;;;;;;;;;;;;;;10.49;59.17;102146.78;4415093;32;19953;-72
2022/03/24 00:23:43;;;;;;;;;;;;;;;10.52;59.13;102142.37;4417371;32;19954;-72
2022/03/24 00:26:08;;;;;;;;;;;;;;;10.52;58.78;102140.34;4417682;32;20389;-72
2022/03/24 00:28:34;;;;;;;;;;;;;;;10.56;58.86;102143.16;4419678;32;20348;-72
2022/03/24 00:31:00;;;;;;;;;;;;;;;10.53;58.91;102136.34;4416086;32;20420;-72
2022/03/24 00:33:26;;;;;;;;;;;;;;;10.48;58.83;102136.72;4400527;32;19953;-72
2022/03/24 00:35:52;;;;;;;;;;;;;;;10.48;59.17;102145.16;4418904;32;20059;-72
2022/03/24 00:38:17;;;;;;;;;;;;;;;10.38;59.50;102139.56;4418127;32;20126;-72
2022/03/24 00:40:43;;;;;;;;;;;;;;;10.35;59.79;102141.16;4414519;32;19941;-72
2022/03/24 00:43:09;;;;;;;;;;;;;;;10.32;59.57;102138.34;4415176;32;20342;-72
2022/03/24 00:45:36;;;;;;;;;;;;;;;10.26;59.57;102134.34;4419564;32;19965;-72
2022/03/24 00:48:02;;;;;;;;;;;;;;;10.19;59.64;102137.16;4416669;32;20363;-72
2022/03/24 00:50:28;;;;;;;;;;;;;;;10.17;59.89;102136.75;4417934;32;20005;-72
2022/03/24 00:52:54;;;;;;;;;;;;;;;10.03;60.28;102129.88;4416444;32;21082;-72
2022/03/24 00:55:20;;;;;;;;;;;;;;;10.02;60.44;102131.09;4418975;32;20355;-72
2022/03/24 00:57:49;;;;;;;;;;;;;;;10.04;60.51;102137.09;4418116;32;20018;-72
2022/03/24 01:00:15;;;;;;;;;;;;;;;10.06;60.26;102131.09;4417272;32;20001;-72
2022/03/24 01:02:41;;;;;;;;;;;;;;;10.70;57.69;102137.47;4414124;32;20354;-72
2022/03/24 01:05:07;;;;;;;;;;;;;;;10.17;59.82;102134.75;4419024;32;20253;-72
2022/03/24 01:07:35;;;;;;;;;;;;;;;10.22;59.71;102130.72;4418337;32;19958;-72
2022/03/24 01:10:02;;;;;;;;;;;;;;;10.13;60.17;102130.31;4419983;32;20001;-72
2022/03/24 01:12:28;;;;;;;;;;;;;;;10.00;60.41;102115.81;4416941;32;20019;-72
2022/03/24 01:14:55;;;;;;;;;;;;;;;10.01;60.45;102123.84;4416894;32;20323;-72
2022/03/24 01:17:23;;;;;;;;;;;;;;;12.39;54.33;102124.03;4416837;32;19957;-72
2022/03/24 01:19:49;;;;;;;;;;;;;;;11.00;56.39;102116.06;4416185;32;19964;-72
2022/03/24 01:22:15;;;;;;;;;;;;;;;10.13;59.54;102116.25;4415959;32;19977;-72
2022/03/24 01:24:40;;;;;;;;;;;;;;;9.94;60.21;102118.22;4416860;32;19990;-72
2022/03/24 01:27:06;;;;;;;;;;;;;;;9.90;60.39;102117.44;4415873;32;19945;-72
2022/03/24 01:29:32;;;;;;;;;;;;;;;9.83;60.86;102117.44;4416854;32;19993;-72
2022/03/24 01:31:59;;;;;;;;;;;;;;;9.99;60.31;102122.66;4401930;32;19984;-72
2022/03/24 01:34:25;;;;;;;;;;;;;;;9.97;60.30;102113.81;4418272;32;20017;-72
2022/03/24 01:36:51;;;;;;;;;;;;;;;9.77;61.29;102115.41;4417432;32;19954;-72
2022/03/24 01:39:17;;;;;;;;;;;;;;;9.83;61.04;102119.44;4414191;32;19957;-72
2022/03/24 01:41:46;;;;;;;;;;;;;;;9.82;61.07;102103.78;4410102;32;19989;-72
2022/03/24 01:44:12;;;;;;;;;;;;;;;9.69;61.69;102108.97;4414816;32;20299;-72
2022/03/24 01:46:39;;;;;;;;;;;;;;;9.75;61.24;102107.38;4419618;32;20015;-72
2022/03/24 01:49:05;;;;;;;;;;;;;;;9.68;61.34;102103.75;4413672;32;20013;-72
2022/03/24 01:51:30;;;;;;;;;;;;;;;9.67;61.29;102100.13;4411867;32;20280;-72
2022/03/24 01:53:59;;;;;;;;;;;;;;;9.60;61.77;102102.94;4417178;32;19964;-72
2022/03/24 01:56:26;;;;;;;;;;;;;;;9.52;61.56;102104.13;4420275;32;20029;-72
2022/03/24 01:58:54;;;;;;;;;;;;;;;9.45;61.95;102104.09;4415958;32;19953;-72
2022/03/24 02:01:36;;;;;;;;;;;;;;;9.29;62.61;102109.28;4414370;32;20231;-72
2022/03/24 02:04:04;;;;;;;;;;;;;;;9.26;62.39;102100.84;4414985;32;19990;-72
2022/03/24 02:06:33;;;;;;;;;;;;;;;9.41;62.12;102111.72;4412180;32;19954;-72
2022/03/24 02:09:00;;;;;;;;;;;;;;;9.34;62.37;102100.47;4418264;32;19985;-72
2022/03/24 02:11:27;;;;;;;;;;;;;;;9.42;62.00;102106.94;4414338;32;19954;-72
2022/03/24 02:13:54;;;;;;;;;;;;;;;9.37;62.37;102098.88;4417459;32;19954;-72
2022/03/24 02:16:20;;;;;;;;;;;;;;;9.42;62.18;102102.09;4415463;32;19988;-72
2022/03/24 02:18:46;;;;;;;;;;;;;;;9.43;62.05;102098.09;4416868;32;19989;-72
2022/03/24 02:21:15;;;;;;;;;;;;;;;9.39;62.24;102099.28;4417027;32;19972;-72
2022/03/24 02:23:42;;;;;;;;;;;;;;;9.33;62.16;102101.66;4417160;32;19964;-72
2022/03/24 02:26:09;;;;;;;;;;;;;;;9.36;62.05;102102.91;4417510;32;19954;-72
2022/03/24 02:28:35;;;;;;;;;;;;;;;9.37;62.13;102099.69;4415472;32;20433;-72
2022/03/24 02:31:00;;;;;;;;;;;;;;;9.28;62.43;102104.06;4414206;32;20001;-72
2022/03/24 02:33:26;;;;;;;;;;;;;;;9.28;62.63;102109.69;4415260;32;19993;-72
2022/03/24 02:35:52;;;;;;;;;;;;;;;9.21;62.77;102102.03;4413342;32;19958;-72
2022/03/24 02:38:19;;;;;;;;;;;;;;;9.13;62.83;102106.03;4418755;32;19957;-72
2022/03/24 02:40:49;;;;;;;;;;;;;;;9.24;62.45;102100.44;4416762;32;19972;-72
2022/03/24 02:43:18;;;;;;;;;;;;;;;9.27;62.23;102096.84;4412724;32;20060;-71
2022/03/24 02:45:43;;;;;;;;;;;;;;;9.15;62.41;102102.81;4418023;32;20344;-72
2022/03/24 02:48:10;;;;;;;;;;;;;;;9.16;62.23;102101.63;4413694;32;20000;-72
2022/03/24 02:50:36;;;;;;;;;;;;;;;9.28;62.05;102102.06;4414764;32;19961;-72
2022/03/24 02:53:02;;;;;;;;;;;;;;;9.23;62.23;102098.81;4413560;32;20278;-72
2022/03/24 02:55:28;;;;;;;;;;;;;;;9.23;62.47;102108.06;4419360;32;19981;-72
2022/03/24 02:57:53;;;;;;;;;;;;;;;9.19;62.44;102098.00;4413823;32;19985;-72
2022/03/24 03:00:20;;;;;;;;;;;;;;;9.18;62.63;102108.44;4417807;32;19965;-72
2022/03/24 03:02:47;;;;;;;;;;;;;;;9.20;62.43;102105.22;4416040;32;19958;-71
2022/03/24 03:05:12;;;;;;;;;;;;;;;9.17;62.66;102109.66;4413044;32;19964;-72
2022/03/24 03:07:38;;;;;;;;;;;;;;;9.09;62.68;102102.41;4416201;32;20338;-72
2022/03/24 03:10:04;;;;;;;;;;;;;;;9.14;62.18;102096.41;4414942;32;19989;-72
2022/03/24 03:12:29;;;;;;;;;;;;;;;9.04;62.57;102096.34;4413573;32;19953;-72
2022/03/24 03:14:56;;;;;;;;;;;;;;;8.92;62.88;102094.72;4417598;32;19991;-72
2022/03/24 03:17:22;;;;;;;;;;;;;;;8.95;62.67;102099.53;4419273;32;19972;-72
2022/03/24 03:19:47;;;;;;;;;;;;;;;8.98;62.60;102093.12;4417806;32;20009;-72
2022/03/24 03:22:14;;;;;;;;;;;;;;;8.93;62.65;102081.47;4413516;32;20022;-71
2022/03/24 03:24:39;;;;;;;;;;;;;;;8.88;62.77;102079.84;4412821;32;20286;-71
2022/03/24 03:27:06;;;;;;;;;;;;;;;8.90;62.56;102088.66;4415924;32;20395;-71
2022/03/24 03:29:32;;;;;;;;;;;;;;;8.91;62.44;102087.50;4415103;32;21147;-71
2022/03/24 03:31:58;;;;;;;;;;;;;;;8.80;62.83;102086.63;4415330;32;19988;-72
2022/03/24 03:34:24;;;;;;;;;;;;;;;8.87;62.79;102085.88;4417650;32;19964;-72
2022/03/24 03:36:51;;;;;;;;;;;;;;;8.81;62.84;102088.22;4412157;32;20040;-72
2022/03/24 03:39:16;;;;;;;;;;;;;;;8.81;62.79;102087.44;4418964;32;19961;-71
2022/03/24 03:41:42;;;;;;;;;;;;;;;8.85;62.50;102082.62;4413123;32;19967;-72
2022/03/24 03:44:08;;;;;;;;;;;;;;;8.73;62.83;102085.78;4417010;32;20404;-71
2022/03/24 03:46:35;;;;;;;;;;;;;;;8.73;62.97;102080.19;4417899;32;19962;-71
2022/03/24 03:49:01;;;;;;;;;;;;;;;8.81;62.69;102081.84;4416164;32;19958;-71
2022/03/24 03:51:27;;;;;;;;;;;;;;;8.71;63.13;102088.22;4417101;32;19968;-71
2022/03/24 03:53:53;;;;;;;;;;;;;;;8.70;62.97;102086.56;4420190;32;20266;-71
2022/03/24 03:56:19;;;;;;;;;;;;;;;8.75;63.07;102086.22;4418335;32;19949;-72
2022/03/24 03:58:44;;;;;;;;;;;;;;;8.68;63.21;102083.38;4415335;32;19968;-72
2022/03/24 04:01:10;;;;;;;;;;;;;;;8.67;63.14;102084.56;4415351;32;19988;-72
2022/03/24 04:03:37;;;;;;;;;;;;;;;8.64;63.24;102088.97;4416280;32;19954;-72
2022/03/24 04:06:04;;;;;;;;;;;;;;;8.65;63.22;102090.56;4416682;32;20436;-72
2022/03/24 04:08:31;;;;;;;;;;;;;;;8.59;63.46;102086.50;4415085;32;20182;-72
2022/03/24 04:10:59;;;;;;;;;;;;;;;8.57;63.37;102086.12;4413471;32;20023;-72
2022/03/24 04:13:29;;;;;;;;;;;;;;;8.53;63.30;102088.09;4416566;32;20591;-71
2022/03/24 04:15:55;;;;;;;;;;;;;;;8.56;63.50;102080.91;4416215;32;19997;-71
2022/03/24 04:18:22;;;;;;;;;;;;;;;8.54;63.52;102084.09;4417782;32;19988;-71
2022/03/24 04:20:48;;;;;;;;;;;;;;;8.47;63.69;102083.25;4417988;32;19964;-71
2022/03/24 04:23:15;;;;;;;;;;;;;;;10.65;58.03;102085.19;4419002;32;19970;-71
2022/03/24 04:25:41;;;;;;;;;;;;;;;8.83;61.77;102080.22;4415650;32;20012;-71
2022/03/24 04:28:07;;;;;;;;;;;;;;;8.78;62.11;102082.62;4413395;32;19993;-71
2022/03/24 04:30:33;;;;;;;;;;;;;;;8.52;62.85;102088.47;4421351;32;20350;-72
2022/03/24 04:32:59;;;;;;;;;;;;;;;8.50;63.32;102088.88;4413404;32;20008;-71
2022/03/24 04:35:26;;;;;;;;;;;;;;;8.44;62.90;102087.63;4416181;32;19997;-71
2022/03/24 04:37:52;;;;;;;;;;;;;;;8.67;62.98;102085.38;4409958;32;20260;-72
2022/03/24 04:40:18;;;;;;;;;;;;;;;8.65;62.93;102084.94;4420529;32;19993;-71
2022/03/24 04:42:45;;;;;;;;;;;;;;;8.71;63.11;102083.38;4419243;32;19957;-71
2022/03/24 04:45:10;;;;;;;;;;;;;;;8.77;62.78;102095.84;4418457;32;20743;-71
2022/03/24 04:47:37;;;;;;;;;;;;;;;8.80;62.48;102083.81;4417152;32;19954;-71
2022/03/24 04:50:03;;;;;;;;;;;;;;;8.85;62.25;102077.84;4415400;32;19950;-71
2022/03/24 04:52:29;;;;;;;;;;;;;;;8.95;61.64;102090.28;4414611;32;19984;-71
2022/03/24 04:54:54;;;;;;;;;;;;;;;8.95;61.83;102088.31;4416885;32;19994;-71
2022/03/24 04:57:20;;;;;;;;;;;;;;;8.96;61.70;102087.09;4404039;32;20001;-71
2022/03/24 04:59:45;;;;;;;;;;;;;;;11.38;54.87;102091.72;4418381;32;19949;-71
2022/03/24 05:02:15;;;;;;;;;;;;;;;12.06;52.33;102094.47;4415633;32;19976;-71
2022/03/24 05:04:41;;;;;;;;;;;;;;;12.22;51.80;102082.66;4420933;32;20006;-71
2022/03/24 05:07:08;;;;;;;;;;;;;;;12.43;51.18;102090.13;4417659;32;20012;-72
2022/03/24 05:09:34;;;;;;;;;;;;;;;12.45;50.82;102094.13;4416603;32;19946;-71
2022/03/24 05:11:59;;;;;;;;;;;;;;;12.50;50.54;102093.66;4414339;32;19949;-71
2022/03/24 05:14:25;;;;;;;;;;;;;;;12.63;50.10;102091.09;4417035;32;20333;-71
2022/03/24 05:16:50;;;;;;;;;;;;;;;12.61;50.28;102096.38;4416477;32;19973;-71
2022/03/24 05:19:15;;;;;;;;;;;;;;;12.69;49.68;102087.41;4416761;32;19954;-71
2022/03/24 05:21:41;;;;;;;;;;;;;;;12.59;49.95;102090.34;4414290;32;20505;-71
2022/03/24 05:24:06;;;;;;;;;;;;;;;12.62;49.74;102093.16;4416173;32;19960;-71
2022/03/24 05:26:32;;;;;;;;;;;;;;;12.56;49.72;102094.81;4414733;32;19965;-71
2022/03/24 05:28:57;;;;;;;;;;;;;;;12.52;49.49;102096.84;4419239;32;19989;-71
2022/03/24 05:31:23;;;;;;;;;;;;;;;12.64;49.23;102101.97;4416727;32;19949;-71
2022/03/24 05:33:50;;;;;;;;;;;;;;;12.63;49.25;102091.09;4414568;32;19961;-71
2022/03/24 05:36:15;;;;;;;;;;;;;;;12.54;49.32;102091.59;4418092;32;20009;-71
2022/03/24 05:38:41;;;;;;;;;;;;;;;12.58;49.24;102095.19;4418282;32;20016;-71
2022/03/24 05:41:08;;;;;;;;;;;;;;;12.71;48.80;102093.44;4417045;32;20405;-71
2022/03/24 05:43:34;;;;;;;;;;;;;;;12.78;48.95;102093.34;4415596;32;20185;-72
2022/03/24 05:45:59;;;;;;;;;;;;;;;12.66;49.15;102102.38;4419251;32;20336;-72
2022/03/24 05:48:25;;;;;;;;;;;;;;;12.74;49.04;102088.97;4418456;32;19958;-72
2022/03/24 05:50:51;;;;;;;;;;;;;;;12.56;48.97;102086.34;4415519;32;20076;-72
2022/03/24 05:53:16;;;;;;;;;;;;;;;12.60;49.38;102089.12;4416179;32;20287;-72
2022/03/24 05:55:42;;;;;;;;;;;;;;;12.68;48.96;102090.66;4416672;32;19950;-72
2022/03/24 05:58:08;;;;;;;;;;;;;;;12.61;49.15;102093.56;4414024;32;20512;-71
2022/03/24 06:00:36;;;;;;;;;;;;;;;12.68;49.00;102091.47;4417291;32;20279;-71
2022/03/24 06:03:03;;;;;;;;;;;;;;;12.58;48.90;102094.41;4413901;32;20008;-71
2022/03/24 06:05:29;;;;;;;;;;;;;;;12.71;48.80;102090.63;4415076;32;20488;-71
2022/03/24 06:07:55;;;;;;;;;;;;;;;12.77;48.58;102090.94;4416649;32;19986;-71
2022/03/24 06:10:22;;;;;;;;;;;;;;;12.77;48.57;102093.78;4416516;32;20289;-71
2022/03/24 06:12:47;;;;;;;;;;;;;;;12.77;48.83;102091.75;4405886;32;19958;-71
2022/03/24 06:15:13;;;;;;;;;;;;;;;12.90;48.61;102098.47;4416840;32;21098;-71
2022/03/24 06:17:39;;;;;;;;;;;;;;;12.74;48.88;102094.63;4418615;32;20283;-71
2022/03/24 06:20:06;;;;;;;;;;;;;;;12.76;48.80;102092.19;4415741;32;19953;-71
2022/03/24 06:22:39;;;;;;;;;;;;;;;12.86;48.47;102094.84;4411585;32;20005;-71
2022/03/24 06:25:05;;;;;;;;;;;;;;;12.93;48.15;102096.81;4418188;32;20026;-71
2022/03/24 06:27:30;;;;;;;;;;;;;;;13.01;48.23;102098.37;4412866;32;19985;-71
2022/03/24 06:29:56;;;;;;;;;;;;;;;12.93;48.20;102097.63;4413714;32;19969;-71
2022/03/24 06:32:21;;;;;;;;;;;;;;;13.03;48.40;102102.38;4414129;32;19998;-71
2022/03/24 06:34:48;;;;;;;;;;;;;;;12.97;48.33;102100.38;4415438;32;19946;-71
2022/03/24 06:37:14;;;;;;;;;;;;;;;13.02;48.45;102100.78;4414035;32;19953;-71
2022/03/24 06:39:40;;;;;;;;;;;;;;;13.03;48.46;102098.72;4411005;32;20657;-71
2022/03/24 06:42:06;;;;;;;;;;;;;;;13.04;48.15;102101.13;4417289;32;20363;-71
2022/03/24 06:44:32;;;;;;;;;;;;;;;13.07;48.03;102105.16;4417310;32;20298;-71
2022/03/24 06:46:57;;;;;;;;;;;;;;;13.10;48.17;102105.09;4413683;32;19967;-71
2022/03/24 06:49:23;;;;;;;;;;;;;;;13.14;47.97;102110.72;4412948;32;19967;-71
2022/03/24 06:51:49;;;;;;;;;;;;;;;13.29;47.51;102098.78;4415562;32;20372;-71
2022/03/24 06:54:15;;;;;;;;;;;;;;;13.39;47.52;102103.50;4415799;32;20366;-72
2022/03/24 06:56:41;;;;;;;;;;;;;;;13.19;47.12;102113.09;4415224;32;19983;-72
2022/03/24 06:59:06;;;;;;;;;;;;;;;13.44;47.45;102119.19;4415933;32;21717;-72
2022/03/24 07:01:32;;;;;;;;;;;;;;;14.66;44.74;102119.22;4410067;32;20025;-72
2022/03/24 07:03:57;;;;;;;;;;;;;;;13.76;47.08;102113.88;4418786;32;20306;-72
2022/03/24 07:06:23;;;;;;;;;;;;;;;13.72;46.96;102113.12;4416106;32;20287;-72
2022/03/24 07:08:49;;;;;;;;;;;;;;;13.72;46.75;102116.75;4413484;32;20302;-72
2022/03/24 07:11:14;;;;;;;;;;;;;;;13.79;46.82;102111.00;4418296;32;20659;-72
2022/03/24 07:13:40;;;;;;;;;;;;;;;14.02;46.53;102119.50;4414715;32;20539;-72
2022/03/24 07:16:05;;;;;;;;;;;;;;;14.79;45.05;102120.16;4416245;32;20000;-72
2022/03/24 07:18:31;;;;;;;;;;;;;;;14.22;45.94;102110.28;4418849;32;20062;-72
2022/03/24 07:20:57;;;;;;;;;;;;;;;14.27;45.92;102115.50;4401510;32;20232;-72
2022/03/24 07:23:23;;;;;;;;;;;;;;;14.46;45.96;102123.25;4413109;32;19995;-72
2022/03/24 07:25:49;;;;;;;;;;;;;;;14.61;45.22;102121.75;4416611;32;20287;-72
2022/03/24 07:28:15;;;;;;;;;;;;;;;14.73;45.26;102129.63;4417924;32;20342;-70
2022/03/24 07:30:42;;;;;;;;;;;;;;;14.74;44.72;102134.06;4416931;32;20330;-70
2022/03/24 07:33:09;;;;;;;;;;;;;;;14.74;45.39;102122.72;4410611;32;20008;-71
2022/03/24 07:35:35;;;;;;;;;;;;;;;14.99;44.92;102126.66;4397035;32;20035;-72
2022/03/24 07:38:00;;;;;;;;;;;;;;;15.01;44.89;102123.41;4411280;32;21144;-72
2022/03/24 07:40:26;;;;;;;;;;;;;;;15.18;44.32;102125.06;4405910;32;20000;-72
2022/03/24 07:42:53;;;;;;;;;;;;;;;15.39;44.20;102136.78;4408277;32;20253;-72
2022/03/24 07:45:20;;;;;;;;;;;;;;;15.50;43.92;102143.03;4410444;32;20026;-72
2022/03/24 07:48:06;;;;;;;;;;;;;;;15.66;44.09;102130.94;4407181;32;20222;-72
2022/03/24 07:50:33;;;;;;;;;;;;;;;15.80;43.61;102130.56;4409048;32;20110;-72
2022/03/24 07:53:04;;;;;;;;;;;;;;;16.09;43.59;102128.69;4410187;32;20204;-72
2022/03/24 07:55:30;;;;;;;;;;;;;;;16.23;42.87;102133.97;4407205;32;19991;-72
2022/03/24 07:57:56;;;;;;;;;;;;;;;16.26;42.82;102141.63;4408567;32;19962;-71
2022/03/24 08:00:22;;;;;;;;;;;;;;;16.57;42.04;102139.25;4406674;32;20181;-71
2022/03/24 08:02:52;;;;;;;;;;;;;;;16.69;42.24;102139.31;4409343;32;19997;-71
2022/03/24 08:05:18;;;;;;;;;;;;;;;16.98;41.22;102142.16;4407362;32;20237;-71
2022/03/24 08:07:43;;;;;;;;;;;;;;;16.98;41.58;102148.66;4406137;32;19976;-71
2022/03/24 08:10:09;;;;;;;;;;;;;;;17.10;41.28;102153.59;4409031;32;19961;-71
2022/03/24 08:12:35;;;;;;;;;;;;;;;17.19;40.85;102150.91;4410984;32;19962;-71
2022/03/24 08:15:01;;;;;;;;;;;;;;;17.30;40.92;102153.41;4410432;32;20026;-72
2022/03/24 08:17:28;;;;;;;;;;;;;;;17.60;40.70;102155.78;4406438;32;20308;-72
2022/03/24 08:19:53;;;;;;;;;;;;;;;17.89;40.23;102147.97;4411224;32;20034;-72
2022/03/24 08:22:19;;;;;;;;;;;;;;;18.10;39.63;102152.19;4408901;32;19997;-72
2022/03/24 08:24:45;;;;;;;;;;;;;;;18.31;39.24;102154.34;4410798;32;19949;-72
2022/03/24 08:27:10;;;;;;;;;;;;;;;18.55;38.93;102153.53;4411137;32;20000;-72
2022/03/24 08:29:36;;;;;;;;;;;;;;;18.85;38.01;102152.06;4409956;32;20041;-73
2022/03/24 08:32:01;;;;;;;;;;;;;;;18.92;37.81;102163.19;4410551;32;19985;-72
2022/03/24 08:34:27;;;;;;;;;;;;;;;19.41;37.20;102158.53;4407974;32;19977;-72
2022/03/24 08:36:52;;;;;;;;;;;;;;;19.71;36.35;102161.44;4394658;32;19967;-73
2022/03/24 08:39:19;;;;;;;;;;;;;;;20.09;35.28;102161.12;4408195;32;20539;-73
2022/03/24 08:41:44;;;;;;;;;;;;;;;20.36;34.99;102169.03;4406126;32;20020;-73
2022/03/24 08:44:11;;;;;;;;;;;;;;;20.42;34.87;102173.66;4411663;32;19996;-73
2022/03/24 08:46:37;;;;;;;;;;;;;;;20.77;34.00;102172.16;4410033;32;20219;-72
2022/03/24 08:49:02;;;;;;;;;;;;;;;21.12;33.59;102166.94;4410615;32;20377;-71
2022/03/24 08:51:28;;;;;;;;;;;;;;;21.35;33.16;102172.81;4409220;32;20048;-72
2022/03/24 08:53:54;;;;;;;;;;;;;;;21.69;32.40;102163.84;4411644;32;20012;-72
2022/03/24 08:56:19;;;;;;;;;;;;;;;21.81;31.80;102158.44;4412632;32;20202;-73
2022/03/24 08:58:46;;;;;;;;;;;;;;;22.20;31.63;102169.56;4411705;32;19993;-73
2022/03/24 09:01:11;;;;;;;;;;;;;;;22.48;31.15;102164.47;4410350;32;19990;-73
2022/03/24 09:03:37;;;;;;;;;;;;;;;22.79;30.35;102182.16;4396648;32;19968;-73
2022/03/24 09:06:03;;;;;;;;;;;;;;;23.30;29.85;102179.88;4412935;32;19972;-73
2022/03/24 09:08:29;;;;;;;;;;;;;;;23.24;29.20;102182.63;4412201;32;20022;-73
2022/03/24 09:10:54;;;;;;;;;;;;;;;23.66;28.93;102185.25;4411030;32;20390;-73
2022/03/24 09:13:20;;;;;;;;;;;;;;;23.82;28.59;102190.50;4412041;32;19965;-73
2022/03/24 09:15:47;;;;;;;;;;;;;;;24.13;28.13;102193.69;4411468;32;20003;-73
2022/03/24 09:18:13;;;;;;;;;;;;;;;24.34;27.52;102191.66;4412350;32;19993;-72
2022/03/24 09:20:39;;;;;;;;;;;;;;;24.63;27.32;102194.44;4411030;32;20012;-72
2022/03/24 09:23:07;;;;;;;;;;;;;;;24.68;27.04;102199.53;4408040;32;19980;-72
2022/03/24 09:25:33;;;;;;;;;;;;;;;24.96;27.00;102195.72;4409597;32;20005;-72
2022/03/24 09:27:59;;;;;;;;;;;;;;;25.24;26.90;102205.50;4410692;32;20004;-73
2022/03/24 09:30:25;;;;;;;;;;;;;;;25.42;26.65;102200.72;4410745;32;20345;-72
2022/03/24 09:32:52;;;;;;;;;;;;;;;25.63;26.40;102200.19;4408377;32;19965;-72
2022/03/24 09:35:18;;;;;;;;;;;;;;;25.75;26.21;102196.13;4411917;32;19967;-72
2022/03/24 09:37:45;;;;;;;;;;;;;;;25.95;25.97;102198.91;4407037;32;20040;-72
2022/03/24 09:40:12;;;;;;;;;;;;;;;25.84;25.90;102198.03;4410574;32;19958;-73
2022/03/24 09:42:38;;;;;;;;;;;;;;;25.74;25.89;102202.41;4409844;32;20005;-73
2022/03/24 09:45:05;;;;;;;;;;;;;;;25.88;25.54;102201.47;4409352;32;19962;-72
2022/03/24 09:47:31;;;;;;;;;;;;;;;25.79;25.67;102199.56;4410698;32;20001;-73
2022/03/24 09:49:57;;;;;;;;;;;;;;;25.73;25.87;102201.59;4413348;32;19972;-72
2022/03/24 09:52:24;;;;;;;;;;;;;;;26.12;25.55;102201.97;4411678;32;20292;-73
2022/03/24 09:54:50;;;;;;;;;;;;;;;26.23;25.46;102202.06;4412471;32;19960;-73
2022/03/24 09:57:16;;;;;;;;;;;;;;;26.79;24.93;102204.06;4408482;32;20023;-73
2022/03/24 09:59:42;;;;;;;;;;;;;;;26.59;24.97;102204.94;4405605;32;20025;-73
2022/03/24 10:02:09;;;;;;;;;;;;;;;26.41;24.89;102199.56;4408627;32;20010;-73
2022/03/24 10:04:52;;;;;;;;;;;;;;;26.36;24.99;102200.34;4410055;32;20117;-72
2022/03/24 10:07:18;;;;;;;;;;;;;;;25.81;25.78;102194.09;4410963;32;19972;-72
2022/03/24 10:09:45;;;;;;;;;;;;;;;26.23;25.59;102202.84;4410011;32;20011;-72
2022/03/24 10:12:28;;;;;;;;;;;;;;;26.88;24.59;102198.81;4409641;32;20642;-72
2022/03/24 10:14:58;;;;;;;;;;;;;;;27.21;23.91;102198.97;4409974;32;19969;-72
2022/03/24 10:17:24;;;;;;;;;;;;;;;27.28;23.84;102200.63;4405090;32;19993;-72
2022/03/24 10:19:59;;;;;;;;;;;;;;;27.79;23.73;102205.19;4408388;32;19977;-72
2022/03/24 10:22:25;;;;;;;;;;;;;;;27.62;24.08;102202.28;4390425;32;20005;-72
2022/03/24 10:24:50;;;;;;;;;;;;;;;27.19;24.29;102192.16;4408257;32;20386;-72
2022/03/24 10:27:20;;;;;;;;;;;;;;;27.60;23.87;102193.31;4405925;32;20005;-72
2022/03/24 10:29:48;;;;;;;;;;;;;;;27.59;24.18;102202.53;4406216;32;20015;-72
2022/03/24 10:32:14;;;;;;;;;;;;;;;27.98;23.84;102200.50;4406907;32;19976;-74
2022/03/24 10:34:41;;;;;;;;;;;;;;;27.57;24.13;102205.16;4405313;32;19972;-72
2022/03/24 10:37:09;;;;;;;;;;;;;;;28.23;23.57;102208.12;4409766;32;19981;-72
2022/03/24 10:39:35;;;;;;;;;;;;;;;28.15;23.45;102198.38;4408974;32;20388;-71
2022/03/24 10:42:14;;;;;;;;;;;;;;;28.40;22.97;102206.78;4411104;32;19988;-71
2022/03/24 10:44:59;;;;;;;;;;;;;;;28.60;23.01;102206.50;4411797;32;19985;-72
2022/03/24 10:47:35;;;;;;;;;;;;;;;26.60;25.04;102208.63;4411243;32;20025;-71
2022/03/24 10:50:20;;;;;;;;;;;;;;;27.67;24.08;102201.47;4412121;32;20614;-72
2022/03/24 10:52:46;;;;;;;;;;;;;;;28.75;22.99;102204.09;4409045;32;21208;-72
2022/03/24 10:55:12;;;;;;;;;;;;;;;29.47;22.23;102203.81;4410920;32;20351;-72
2022/03/24 10:57:38;;;;;;;;;;;;;;;29.79;21.98;102207.09;4406427;32;19993;-71
2022/03/24 11:00:04;;;;;;;;;;;;;;;29.39;22.05;102193.34;4407275;32;20038;-72
2022/03/24 11:02:31;;;;;;;;;;;;;;;29.77;21.78;102201.03;4407892;32;20025;-71
2022/03/24 11:04:58;;;;;;;;;;;;;;;29.70;22.06;102195.81;4394361;32;20915;-71
2022/03/24 11:07:25;;;;;;;;;;;;;;;30.16;21.75;102202.28;4410378;32;20753;-72
2022/03/24 11:09:50;;;;;;;;;;;;;;;30.21;21.53;102201.47;4406504;32;20006;-72
2022/03/24 11:12:33;;;;;;;;;;;;;;;30.23;21.54;102200.94;4409229;32;19969;-73
2022/03/24 11:15:00;;;;;;;;;;;;;;;30.27;21.48;102204.31;4411487;32;19996;-72
2022/03/24 11:17:30;;;;;;;;;;;;;;;30.24;21.59;102202.50;4399579;32;19985;-72
2022/03/24 11:20:15;;;;;;;;;;;;;;;30.61;21.28;102196.84;4411011;32;19968;-73
2022/03/24 11:23:00;;;;;;;;;;;;;;;31.26;20.51;102206.13;4409726;32;19989;-73
2022/03/24 11:25:27;;;;;;;;;;;;;;;31.17;20.37;102197.78;4409286;32;20014;-71
2022/03/24 11:27:54;;;;;;;;;;;;;;;31.08;20.21;102195.28;4413357;32;20008;-72
2022/03/24 11:30:20;;;;;;;;;;;;;;;31.11;19.40;102188.38;4409302;32;20100;-72
2022/03/24 11:32:47;;;;;;;;;;;;;;;30.42;19.64;102196.00;4409343;32;20342;-71
2022/03/24 11:35:13;;;;;;;;;;;;;;;31.35;18.98;102184.62;4411708;32;20350;-73
2022/03/24 11:37:39;;;;;;;;;;;;;;;31.26;18.96;102187.91;4409980;32;20018;-73
2022/03/24 11:48:01;;;;;;;;;;;;;;;33.23;16.04;102188.69;3954973;32;15722458;-72
2022/03/24 12:09:25;;;;;;;;;;;;;;;35.99;12.64;102186.91;3948442;32;15722509;-74
2022/03/24 12:12:04;;;;;;;;;;;;;;;35.99;12.64;102186.91;4425209;32;20371;-73
2022/03/24 12:17:14;;;;;;;;;;;;;;;35.06;12.70;102170.94;3946124;32;15721586;-74
2022/03/24 12:19:42;;;;;;;;;;;;;;;35.71;12.30;102179.00;4405804;32;20347;-74
2022/03/24 12:22:29;;;;;;;;;;;;;;;35.16;12.57;102174.91;4422176;32;20422;-73
2022/03/24 12:27:55;;;;;;;;;;;;;;;35.99;12.24;102167.16;3946893;32;15724620;-71
2022/03/24 12:30:24;;;;;;;;;;;;;;;35.99;12.24;102167.16;4419628;32;20017;-72
2022/03/24 12:33:02;;;;;;;;;;;;;;;35.98;11.92;102171.47;4425364;32;19989;-73
2022/03/24 12:35:39;;;;;;;;;;;;;;;35.84;12.15;102164.22;4421784;32;19961;-72
2022/03/24 12:38:24;;;;;;;;;;;;;;;36.12;11.71;102175.78;4421818;32;20005;-72
2022/03/24 12:43:43;;;;;;;;;;;;;;;36.83;11.00;102165.78;3947885;32;15721455;-74
2022/03/24 12:46:29;;;;;;;;;;;;;;;36.83;11.00;102165.78;4423014;32;19982;-73
2022/03/24 12:48:56;;;;;;;;;;;;;;;36.75;11.36;102159.13;4423111;32;20390;-73
2022/03/24 12:54:03;;;;;;;;;;;;;;;32.79;14.40;102150.91;3953798;32;15737054;-73
2022/03/24 12:56:31;;;;;;;;;;;;;;;32.79;14.40;102150.91;4435272;32;21182;-74
2022/03/24 12:58:58;;;;;;;;;;;;;;;31.97;14.52;102154.03;4436326;32;20017;-72
2022/03/24 13:01:25;;;;;;;;;;;;;;;31.81;14.13;102147.12;4439505;32;20620;-73
2022/03/24 13:03:59;;;;;;;;;;;;;;;31.52;14.57;102139.38;4439595;32;19991;-73
2022/03/24 13:06:25;;;;;;;;;;;;;;;31.82;14.20;102137.09;4437674;32;19979;-74
2022/03/24 13:09:12;;;;;;;;;;;;;;;31.37;14.26;102144.09;4438416;32;20370;-74
2022/03/24 13:11:58;;;;;;;;;;;;;;;31.88;14.11;102134.84;4437752;32;20371;-74
2022/03/24 13:14:24;;;;;;;;;;;;;;;31.82;14.31;102134.16;4437488;32;19997;-73
2022/03/24 13:17:08;;;;;;;;;;;;;;;31.90;14.28;102135.06;4437785;32;20004;-73